sensor_id;sensor_type;location;lat;lon;timestamp;P1;durP1;ratioP1;P2;durP2;ratioP2
48534;SDS011;34323;52.022;5.686;2023-06-10T00:01:23;9.18;;;5.88;;
48534;SDS011;34323;52.022;5.686;2023-06-10T00:03:50;7.97;;;5.72;;
48534;SDS011;34323;52.022;5.686;2023-06-10T00:06:17;7.97;;;6.53;;
48534;SDS011;34323;52.022;5.686;2023-06-10T00:08:42;9.02;;;6.13;;
48534;SDS011;34323;52.022;5.686;2023-06-10T00:11:08;8.15;;;6.15;;
48534;SDS011;34323;52.022;5.686;2023-06-10T00:13:33;6.45;;;5.35;;
48534;SDS011;34323;52.022;5.686;2023-06-10T00:15:59;8.13;;;5.57;;
48534;SDS011;34323;52.022;5.686;2023-06-10T00:18:25;11.18;;;6.10;;
48534;SDS011;34323;52.022;5.686;2023-06-10T00:20:51;7.85;;;5.95;;
48534;SDS011;34323;52.022;5.686;2023-06-10T00:23:18;12.27;;;6.80;;
48534;SDS011;34323;52.022;5.686;2023-06-10T00:25:43;11.48;;;6.43;;
48534;SDS011;34323;52.022;5.686;2023-06-10T00:28:09;8.95;;;6.05;;
48534;SDS011;34323;52.022;5.686;2023-06-10T00:30:35;12.07;;;6.05;;
48534;SDS011;34323;52.022;5.686;2023-06-10T00:33:00;9.82;;;6.43;;
48534;SDS011;34323;52.022;5.686;2023-06-10T00:35:26;9.65;;;5.90;;
48534;SDS011;34323;52.022;5.686;2023-06-10T00:37:51;13.57;;;6.57;;
48534;SDS011;34323;52.022;5.686;2023-06-10T00:40:17;10.02;;;6.55;;
48534;SDS011;34323;52.022;5.686;2023-06-10T00:42:42;7.35;;;5.65;;
48534;SDS011;34323;52.022;5.686;2023-06-10T00:45:08;9.93;;;5.80;;
48534;SDS011;34323;52.022;5.686;2023-06-10T00:47:34;8.57;;;5.63;;
48534;SDS011;34323;52.022;5.686;2023-06-10T00:50:00;7.05;;;5.78;;
48534;SDS011;34323;52.022;5.686;2023-06-10T00:52:27;9.90;;;5.88;;
48534;SDS011;34323;52.022;5.686;2023-06-10T00:54:54;12.63;;;5.97;;
48534;SDS011;34323;52.022;5.686;2023-06-10T00:57:20;9.52;;;6.47;;
48534;SDS011;34323;52.022;5.686;2023-06-10T00:59:47;8.68;;;5.60;;
48534;SDS011;34323;52.022;5.686;2023-06-10T01:02:13;11.05;;;6.80;;
48534;SDS011;34323;52.022;5.686;2023-06-10T01:04:39;11.63;;;6.15;;
48534;SDS011;34323;52.022;5.686;2023-06-10T01:07:20;7.45;;;5.60;;
48534;SDS011;34323;52.022;5.686;2023-06-10T01:12:39;8.23;;;6.10;;
48534;SDS011;34323;52.022;5.686;2023-06-10T01:15:14;8.90;;;5.75;;
48534;SDS011;34323;52.022;5.686;2023-06-10T01:17:54;12.93;;;5.90;;
48534;SDS011;34323;52.022;5.686;2023-06-10T01:20:33;8.55;;;5.85;;
48534;SDS011;34323;52.022;5.686;2023-06-10T01:23:00;7.22;;;5.40;;
48534;SDS011;34323;52.022;5.686;2023-06-10T01:25:28;7.45;;;5.38;;
48534;SDS011;34323;52.022;5.686;2023-06-10T01:28:02;10.73;;;5.55;;
48534;SDS011;34323;52.022;5.686;2023-06-10T01:33:31;10.52;;;5.40;;
48534;SDS011;34323;52.022;5.686;2023-06-10T01:36:08;10.38;;;6.00;;
48534;SDS011;34323;52.022;5.686;2023-06-10T01:38:39;10.82;;;5.80;;
48534;SDS011;34323;52.022;5.686;2023-06-10T01:41:08;7.47;;;5.90;;
48534;SDS011;34323;52.022;5.686;2023-06-10T01:43:37;6.97;;;5.18;;
48534;SDS011;34323;52.022;5.686;2023-06-10T01:46:03;8.77;;;5.30;;
48534;SDS011;34323;52.022;5.686;2023-06-10T01:48:29;6.80;;;4.72;;
48534;SDS011;34323;52.022;5.686;2023-06-10T01:50:54;7.15;;;5.13;;
48534;SDS011;34323;52.022;5.686;2023-06-10T01:53:21;9.35;;;5.28;;
48534;SDS011;34323;52.022;5.686;2023-06-10T01:55:47;8.68;;;5.10;;
48534;SDS011;34323;52.022;5.686;2023-06-10T01:58:13;6.97;;;4.97;;
48534;SDS011;34323;52.022;5.686;2023-06-10T02:00:38;8.13;;;4.65;;
48534;SDS011;34323;52.022;5.686;2023-06-10T02:03:04;8.82;;;5.32;;
48534;SDS011;34323;52.022;5.686;2023-06-10T02:05:30;8.38;;;4.82;;
48534;SDS011;34323;52.022;5.686;2023-06-10T02:07:55;7.22;;;5.25;;
48534;SDS011;34323;52.022;5.686;2023-06-10T02:10:21;7.97;;;5.38;;
48534;SDS011;34323;52.022;5.686;2023-06-10T02:12:47;9.80;;;5.13;;
48534;SDS011;34323;52.022;5.686;2023-06-10T02:15:12;8.20;;;5.40;;
48534;SDS011;34323;52.022;5.686;2023-06-10T02:17:38;8.77;;;4.55;;
48534;SDS011;34323;52.022;5.686;2023-06-10T02:20:04;14.88;;;5.43;;
48534;SDS011;34323;52.022;5.686;2023-06-10T02:22:31;9.57;;;4.78;;
48534;SDS011;34323;52.022;5.686;2023-06-10T02:24:57;10.27;;;5.07;;
48534;SDS011;34323;52.022;5.686;2023-06-10T02:27:23;6.65;;;4.65;;
48534;SDS011;34323;52.022;5.686;2023-06-10T02:29:48;8.82;;;5.10;;
48534;SDS011;34323;52.022;5.686;2023-06-10T02:32:14;7.35;;;4.97;;
48534;SDS011;34323;52.022;5.686;2023-06-10T02:34:40;12.25;;;4.90;;
48534;SDS011;34323;52.022;5.686;2023-06-10T02:37:07;9.38;;;5.25;;
48534;SDS011;34323;52.022;5.686;2023-06-10T02:39:33;7.80;;;4.72;;
48534;SDS011;34323;52.022;5.686;2023-06-10T02:41:59;7.97;;;4.75;;
48534;SDS011;34323;52.022;5.686;2023-06-10T02:44:24;9.25;;;4.53;;
48534;SDS011;34323;52.022;5.686;2023-06-10T02:46:50;7.10;;;4.32;;
48534;SDS011;34323;52.022;5.686;2023-06-10T02:49:16;6.93;;;4.28;;
48534;SDS011;34323;52.022;5.686;2023-06-10T02:51:41;9.88;;;5.35;;
48534;SDS011;34323;52.022;5.686;2023-06-10T02:54:07;6.85;;;4.53;;
48534;SDS011;34323;52.022;5.686;2023-06-10T02:56:32;8.98;;;4.85;;
48534;SDS011;34323;52.022;5.686;2023-06-10T02:58:58;8.20;;;4.75;;
48534;SDS011;34323;52.022;5.686;2023-06-10T03:01:24;7.93;;;4.68;;
48534;SDS011;34323;52.022;5.686;2023-06-10T03:03:49;7.32;;;4.40;;
48534;SDS011;34323;52.022;5.686;2023-06-10T03:06:15;12.85;;;4.55;;
48534;SDS011;34323;52.022;5.686;2023-06-10T03:08:41;8.80;;;4.63;;
48534;SDS011;34323;52.022;5.686;2023-06-10T03:11:07;6.35;;;4.13;;
48534;SDS011;34323;52.022;5.686;2023-06-10T03:13:33;8.63;;;4.45;;
48534;SDS011;34323;52.022;5.686;2023-06-10T03:15:59;6.10;;;4.28;;
48534;SDS011;34323;52.022;5.686;2023-06-10T03:18:27;9.30;;;4.20;;
48534;SDS011;34323;52.022;5.686;2023-06-10T03:20:54;6.85;;;4.45;;
48534;SDS011;34323;52.022;5.686;2023-06-10T03:23:20;8.80;;;4.97;;
48534;SDS011;34323;52.022;5.686;2023-06-10T03:25:46;6.45;;;4.28;;
48534;SDS011;34323;52.022;5.686;2023-06-10T03:28:11;8.02;;;4.50;;
48534;SDS011;34323;52.022;5.686;2023-06-10T03:30:37;6.28;;;4.05;;
48534;SDS011;34323;52.022;5.686;2023-06-10T03:33:02;8.57;;;4.20;;
48534;SDS011;34323;52.022;5.686;2023-06-10T03:35:29;10.50;;;4.63;;
48534;SDS011;34323;52.022;5.686;2023-06-10T03:37:54;11.85;;;4.30;;
48534;SDS011;34323;52.022;5.686;2023-06-10T03:40:20;49.45;;;5.35;;
48534;SDS011;34323;52.022;5.686;2023-06-10T03:42:46;10.88;;;4.78;;
48534;SDS011;34323;52.022;5.686;2023-06-10T03:45:11;9.45;;;4.65;;
48534;SDS011;34323;52.022;5.686;2023-06-10T03:47:37;8.13;;;4.63;;
48534;SDS011;34323;52.022;5.686;2023-06-10T03:50:05;10.20;;;4.82;;
48534;SDS011;34323;52.022;5.686;2023-06-10T03:52:33;7.80;;;4.32;;
48534;SDS011;34323;52.022;5.686;2023-06-10T03:54:58;7.68;;;4.38;;
48534;SDS011;34323;52.022;5.686;2023-06-10T03:57:24;12.70;;;5.25;;
48534;SDS011;34323;52.022;5.686;2023-06-10T03:59:50;7.78;;;4.47;;
48534;SDS011;34323;52.022;5.686;2023-06-10T04:02:16;9.80;;;5.05;;
48534;SDS011;34323;52.022;5.686;2023-06-10T04:04:41;8.82;;;5.22;;
48534;SDS011;34323;52.022;5.686;2023-06-10T04:07:07;9.48;;;4.57;;
48534;SDS011;34323;52.022;5.686;2023-06-10T04:09:33;7.95;;;4.45;;
48534;SDS011;34323;52.022;5.686;2023-06-10T04:11:59;11.60;;;4.47;;
48534;SDS011;34323;52.022;5.686;2023-06-10T04:14:25;9.10;;;4.57;;
48534;SDS011;34323;52.022;5.686;2023-06-10T04:16:51;9.07;;;4.85;;
48534;SDS011;34323;52.022;5.686;2023-06-10T04:19:16;8.70;;;5.00;;
48534;SDS011;34323;52.022;5.686;2023-06-10T04:21:42;8.95;;;4.57;;
48534;SDS011;34323;52.022;5.686;2023-06-10T04:24:07;8.75;;;4.25;;
48534;SDS011;34323;52.022;5.686;2023-06-10T04:26:35;9.20;;;4.30;;
48534;SDS011;34323;52.022;5.686;2023-06-10T04:29:01;10.48;;;5.05;;
48534;SDS011;34323;52.022;5.686;2023-06-10T04:31:27;8.23;;;4.20;;
48534;SDS011;34323;52.022;5.686;2023-06-10T04:33:53;6.85;;;4.57;;
48534;SDS011;34323;52.022;5.686;2023-06-10T04:36:19;7.85;;;4.68;;
48534;SDS011;34323;52.022;5.686;2023-06-10T04:38:45;6.28;;;4.05;;
48534;SDS011;34323;52.022;5.686;2023-06-10T04:41:11;8.63;;;4.13;;
48534;SDS011;34323;52.022;5.686;2023-06-10T04:43:37;10.02;;;4.75;;
48534;SDS011;34323;52.022;5.686;2023-06-10T04:46:06;9.15;;;4.70;;
48534;SDS011;34323;52.022;5.686;2023-06-10T04:48:32;10.25;;;4.78;;
48534;SDS011;34323;52.022;5.686;2023-06-10T04:51:00;9.75;;;5.20;;
48534;SDS011;34323;52.022;5.686;2023-06-10T04:53:25;7.82;;;4.15;;
48534;SDS011;34323;52.022;5.686;2023-06-10T04:55:53;10.27;;;4.60;;
48534;SDS011;34323;52.022;5.686;2023-06-10T04:58:19;13.05;;;4.80;;
48534;SDS011;34323;52.022;5.686;2023-06-10T05:00:44;6.65;;;4.80;;
48534;SDS011;34323;52.022;5.686;2023-06-10T05:03:10;9.95;;;5.28;;
48534;SDS011;34323;52.022;5.686;2023-06-10T05:05:35;6.13;;;3.75;;
48534;SDS011;34323;52.022;5.686;2023-06-10T05:08:01;8.75;;;4.35;;
48534;SDS011;34323;52.022;5.686;2023-06-10T05:10:26;7.38;;;4.18;;
48534;SDS011;34323;52.022;5.686;2023-06-10T05:12:52;9.50;;;5.15;;
48534;SDS011;34323;52.022;5.686;2023-06-10T05:15:18;7.20;;;4.72;;
48534;SDS011;34323;52.022;5.686;2023-06-10T05:17:43;6.72;;;4.75;;
48534;SDS011;34323;52.022;5.686;2023-06-10T05:20:09;9.40;;;5.25;;
48534;SDS011;34323;52.022;5.686;2023-06-10T05:22:35;11.18;;;4.55;;
48534;SDS011;34323;52.022;5.686;2023-06-10T05:25:01;8.98;;;5.13;;
48534;SDS011;34323;52.022;5.686;2023-06-10T05:27:26;9.00;;;4.95;;
48534;SDS011;34323;52.022;5.686;2023-06-10T05:29:52;10.85;;;5.30;;
48534;SDS011;34323;52.022;5.686;2023-06-10T05:32:17;12.82;;;5.03;;
48534;SDS011;34323;52.022;5.686;2023-06-10T05:34:43;13.07;;;5.13;;
48534;SDS011;34323;52.022;5.686;2023-06-10T05:37:09;8.10;;;4.32;;
48534;SDS011;34323;52.022;5.686;2023-06-10T05:39:35;13.10;;;4.63;;
48534;SDS011;34323;52.022;5.686;2023-06-10T05:42:03;8.57;;;4.97;;
48534;SDS011;34323;52.022;5.686;2023-06-10T05:44:31;6.65;;;4.60;;
48534;SDS011;34323;52.022;5.686;2023-06-10T05:46:57;12.35;;;4.78;;
48534;SDS011;34323;52.022;5.686;2023-06-10T05:49:22;9.95;;;4.95;;
48534;SDS011;34323;52.022;5.686;2023-06-10T05:51:48;9.75;;;4.88;;
48534;SDS011;34323;52.022;5.686;2023-06-10T05:54:13;6.57;;;4.22;;
48534;SDS011;34323;52.022;5.686;2023-06-10T05:56:39;8.20;;;4.47;;
48534;SDS011;34323;52.022;5.686;2023-06-10T05:59:04;7.75;;;4.30;;
48534;SDS011;34323;52.022;5.686;2023-06-10T06:01:30;8.95;;;4.32;;
48534;SDS011;34323;52.022;5.686;2023-06-10T06:03:55;10.02;;;4.60;;
48534;SDS011;34323;52.022;5.686;2023-06-10T06:06:21;16.75;;;4.97;;
48534;SDS011;34323;52.022;5.686;2023-06-10T06:08:47;13.50;;;4.95;;
48534;SDS011;34323;52.022;5.686;2023-06-10T06:11:12;10.35;;;5.47;;
48534;SDS011;34323;52.022;5.686;2023-06-10T06:13:38;7.90;;;4.50;;
48534;SDS011;34323;52.022;5.686;2023-06-10T06:16:04;9.25;;;4.68;;
48534;SDS011;34323;52.022;5.686;2023-06-10T06:18:29;19.15;;;5.32;;
48534;SDS011;34323;52.022;5.686;2023-06-10T06:20:55;18.23;;;5.13;;
48534;SDS011;34323;52.022;5.686;2023-06-10T06:23:23;17.27;;;5.32;;
48534;SDS011;34323;52.022;5.686;2023-06-10T06:25:49;19.98;;;4.78;;
48534;SDS011;34323;52.022;5.686;2023-06-10T06:28:15;10.88;;;4.53;;
48534;SDS011;34323;52.022;5.686;2023-06-10T06:30:40;10.77;;;5.47;;
48534;SDS011;34323;52.022;5.686;2023-06-10T06:33:06;7.97;;;3.80;;
48534;SDS011;34323;52.022;5.686;2023-06-10T06:35:32;7.15;;;4.50;;
48534;SDS011;34323;52.022;5.686;2023-06-10T06:37:59;8.48;;;4.70;;
48534;SDS011;34323;52.022;5.686;2023-06-10T06:40:24;11.40;;;4.35;;
48534;SDS011;34323;52.022;5.686;2023-06-10T06:42:50;8.73;;;4.88;;
48534;SDS011;34323;52.022;5.686;2023-06-10T06:45:16;6.50;;;3.88;;
48534;SDS011;34323;52.022;5.686;2023-06-10T06:47:41;11.40;;;5.10;;
48534;SDS011;34323;52.022;5.686;2023-06-10T06:50:08;11.27;;;4.28;;
48534;SDS011;34323;52.022;5.686;2023-06-10T06:52:34;6.97;;;4.07;;
48534;SDS011;34323;52.022;5.686;2023-06-10T06:54:59;7.35;;;4.30;;
48534;SDS011;34323;52.022;5.686;2023-06-10T06:57:25;9.60;;;4.30;;
48534;SDS011;34323;52.022;5.686;2023-06-10T06:59:50;6.38;;;4.22;;
48534;SDS011;34323;52.022;5.686;2023-06-10T07:02:16;13.60;;;4.78;;
48534;SDS011;34323;52.022;5.686;2023-06-10T07:04:41;7.97;;;4.10;;
48534;SDS011;34323;52.022;5.686;2023-06-10T07:07:07;7.80;;;4.30;;
48534;SDS011;34323;52.022;5.686;2023-06-10T07:09:34;7.63;;;4.40;;
48534;SDS011;34323;52.022;5.686;2023-06-10T07:11:59;11.35;;;4.40;;
48534;SDS011;34323;52.022;5.686;2023-06-10T07:14:25;22.77;;;4.47;;
48534;SDS011;34323;52.022;5.686;2023-06-10T07:16:50;10.30;;;3.88;;
48534;SDS011;34323;52.022;5.686;2023-06-10T07:19:16;11.05;;;4.55;;
48534;SDS011;34323;52.022;5.686;2023-06-10T07:21:42;13.15;;;3.80;;
48534;SDS011;34323;52.022;5.686;2023-06-10T07:24:07;7.78;;;3.80;;
48534;SDS011;34323;52.022;5.686;2023-06-10T07:26:33;14.15;;;4.50;;
48534;SDS011;34323;52.022;5.686;2023-06-10T07:28:59;5.82;;;3.60;;
48534;SDS011;34323;52.022;5.686;2023-06-10T07:31:24;9.63;;;3.67;;
48534;SDS011;34323;52.022;5.686;2023-06-10T07:33:50;7.97;;;4.20;;
48534;SDS011;34323;52.022;5.686;2023-06-10T07:36:15;7.80;;;4.45;;
48534;SDS011;34323;52.022;5.686;2023-06-10T07:38:41;18.73;;;4.93;;
48534;SDS011;34323;52.022;5.686;2023-06-10T07:41:07;11.70;;;3.63;;
48534;SDS011;34323;52.022;5.686;2023-06-10T07:43:33;9.25;;;4.20;;
48534;SDS011;34323;52.022;5.686;2023-06-10T07:45:59;9.70;;;3.75;;
48534;SDS011;34323;52.022;5.686;2023-06-10T07:48:25;9.60;;;3.53;;
48534;SDS011;34323;52.022;5.686;2023-06-10T07:50:51;8.77;;;4.55;;
48534;SDS011;34323;52.022;5.686;2023-06-10T07:53:17;6.60;;;4.10;;
48534;SDS011;34323;52.022;5.686;2023-06-10T07:55:43;12.13;;;4.28;;
48534;SDS011;34323;52.022;5.686;2023-06-10T07:58:09;6.68;;;3.90;;
48534;SDS011;34323;52.022;5.686;2023-06-10T08:00:35;11.35;;;4.60;;
48534;SDS011;34323;52.022;5.686;2023-06-10T08:03:00;11.02;;;4.32;;
48534;SDS011;34323;52.022;5.686;2023-06-10T08:05:26;8.57;;;3.80;;
48534;SDS011;34323;52.022;5.686;2023-06-10T08:07:51;12.15;;;3.88;;
48534;SDS011;34323;52.022;5.686;2023-06-10T08:10:17;8.32;;;3.95;;
48534;SDS011;34323;52.022;5.686;2023-06-10T08:12:42;10.18;;;4.00;;
48534;SDS011;34323;52.022;5.686;2023-06-10T08:15:08;5.80;;;4.18;;
48534;SDS011;34323;52.022;5.686;2023-06-10T08:17:34;13.52;;;4.07;;
48534;SDS011;34323;52.022;5.686;2023-06-10T08:20:00;6.80;;;4.18;;
48534;SDS011;34323;52.022;5.686;2023-06-10T08:22:26;8.70;;;4.35;;
48534;SDS011;34323;52.022;5.686;2023-06-10T08:24:51;5.82;;;3.70;;
48534;SDS011;34323;52.022;5.686;2023-06-10T08:27:17;7.88;;;3.83;;
48534;SDS011;34323;52.022;5.686;2023-06-10T08:29:42;10.13;;;3.95;;
48534;SDS011;34323;52.022;5.686;2023-06-10T08:32:08;5.47;;;3.72;;
48534;SDS011;34323;52.022;5.686;2023-06-10T08:34:34;7.70;;;4.25;;
48534;SDS011;34323;52.022;5.686;2023-06-10T08:37:03;7.13;;;3.88;;
48534;SDS011;34323;52.022;5.686;2023-06-10T08:39:29;9.73;;;4.03;;
48534;SDS011;34323;52.022;5.686;2023-06-10T08:42:02;6.05;;;3.38;;
48534;SDS011;34323;52.022;5.686;2023-06-10T08:44:31;6.75;;;3.72;;
48534;SDS011;34323;52.022;5.686;2023-06-10T08:47:01;7.10;;;3.90;;
48534;SDS011;34323;52.022;5.686;2023-06-10T08:49:33;6.80;;;3.30;;
48534;SDS011;34323;52.022;5.686;2023-06-10T08:54:32;5.95;;;3.55;;
48534;SDS011;34323;52.022;5.686;2023-06-10T08:57:03;6.25;;;3.60;;
48534;SDS011;34323;52.022;5.686;2023-06-10T08:59:33;6.50;;;3.72;;
48534;SDS011;34323;52.022;5.686;2023-06-10T09:01:59;7.18;;;3.70;;
48534;SDS011;34323;52.022;5.686;2023-06-10T09:04:27;8.10;;;3.35;;
48534;SDS011;34323;52.022;5.686;2023-06-10T09:06:53;6.20;;;3.65;;
48534;SDS011;34323;52.022;5.686;2023-06-10T09:09:19;7.22;;;3.63;;
48534;SDS011;34323;52.022;5.686;2023-06-10T09:11:45;5.53;;;3.85;;
48534;SDS011;34323;52.022;5.686;2023-06-10T09:14:10;4.80;;;3.22;;
48534;SDS011;34323;52.022;5.686;2023-06-10T09:16:40;9.32;;;3.78;;
48534;SDS011;34323;52.022;5.686;2023-06-10T09:19:06;6.72;;;4.25;;
48534;SDS011;34323;52.022;5.686;2023-06-10T09:21:35;9.60;;;3.70;;
48534;SDS011;34323;52.022;5.686;2023-06-10T09:24:01;5.93;;;3.50;;
48534;SDS011;34323;52.022;5.686;2023-06-10T09:26:30;5.72;;;3.40;;
48534;SDS011;34323;52.022;5.686;2023-06-10T09:29:02;8.75;;;4.18;;
48534;SDS011;34323;52.022;5.686;2023-06-10T09:31:30;6.50;;;3.83;;
48534;SDS011;34323;52.022;5.686;2023-06-10T09:34:04;12.07;;;3.78;;
48534;SDS011;34323;52.022;5.686;2023-06-10T09:36:34;6.85;;;4.10;;
48534;SDS011;34323;52.022;5.686;2023-06-10T09:39:01;8.13;;;3.80;;
48534;SDS011;34323;52.022;5.686;2023-06-10T09:41:39;7.07;;;3.30;;
48534;SDS011;34323;52.022;5.686;2023-06-10T09:44:12;7.50;;;4.00;;
48534;SDS011;34323;52.022;5.686;2023-06-10T09:46:39;5.32;;;3.25;;
48534;SDS011;34323;52.022;5.686;2023-06-10T09:49:05;7.70;;;3.83;;
48534;SDS011;34323;52.022;5.686;2023-06-10T09:51:30;5.82;;;3.45;;
48534;SDS011;34323;52.022;5.686;2023-06-10T09:53:56;6.30;;;3.15;;
48534;SDS011;34323;52.022;5.686;2023-06-10T09:56:21;8.57;;;4.28;;
48534;SDS011;34323;52.022;5.686;2023-06-10T09:58:58;5.32;;;3.45;;
48534;SDS011;34323;52.022;5.686;2023-06-10T10:01:24;9.93;;;3.47;;
48534;SDS011;34323;52.022;5.686;2023-06-10T10:03:50;5.50;;;3.22;;
48534;SDS011;34323;52.022;5.686;2023-06-10T10:06:16;5.93;;;3.40;;
48534;SDS011;34323;52.022;5.686;2023-06-10T10:08:45;6.03;;;3.83;;
48534;SDS011;34323;52.022;5.686;2023-06-10T10:11:12;7.38;;;3.08;;
48534;SDS011;34323;52.022;5.686;2023-06-10T10:13:39;8.07;;;3.40;;
48534;SDS011;34323;52.022;5.686;2023-06-10T10:16:15;7.28;;;3.30;;
48534;SDS011;34323;52.022;5.686;2023-06-10T10:18:43;9.63;;;3.70;;
48534;SDS011;34323;52.022;5.686;2023-06-10T10:21:15;5.70;;;3.38;;
48534;SDS011;34323;52.022;5.686;2023-06-10T10:23:52;7.78;;;4.00;;
48534;SDS011;34323;52.022;5.686;2023-06-10T10:26:23;5.55;;;4.22;;
48534;SDS011;34323;52.022;5.686;2023-06-10T10:28:53;5.65;;;3.90;;
48534;SDS011;34323;52.022;5.686;2023-06-10T10:31:29;5.35;;;3.10;;
48534;SDS011;34323;52.022;5.686;2023-06-10T10:33:58;6.00;;;3.40;;
48534;SDS011;34323;52.022;5.686;2023-06-10T10:36:25;7.85;;;3.88;;
48534;SDS011;34323;52.022;5.686;2023-06-10T10:38:52;6.05;;;3.47;;
48534;SDS011;34323;52.022;5.686;2023-06-10T10:41:18;6.93;;;3.28;;
48534;SDS011;34323;52.022;5.686;2023-06-10T10:43:44;5.93;;;3.28;;
48534;SDS011;34323;52.022;5.686;2023-06-10T10:46:12;4.35;;;3.20;;
48534;SDS011;34323;52.022;5.686;2023-06-10T10:48:39;7.40;;;3.10;;
48534;SDS011;34323;52.022;5.686;2023-06-10T10:51:08;5.30;;;3.28;;
48534;SDS011;34323;52.022;5.686;2023-06-10T10:53:34;5.47;;;3.63;;
48534;SDS011;34323;52.022;5.686;2023-06-10T10:56:05;7.50;;;3.53;;
48534;SDS011;34323;52.022;5.686;2023-06-10T10:58:32;7.32;;;3.90;;
48534;SDS011;34323;52.022;5.686;2023-06-10T11:00:58;6.20;;;3.17;;
48534;SDS011;34323;52.022;5.686;2023-06-10T11:03:27;7.22;;;3.25;;
48534;SDS011;34323;52.022;5.686;2023-06-10T11:05:57;6.13;;;3.63;;
48534;SDS011;34323;52.022;5.686;2023-06-10T11:10:58;5.88;;;3.30;;
48534;SDS011;34323;52.022;5.686;2023-06-10T11:13:25;6.60;;;3.35;;
48534;SDS011;34323;52.022;5.686;2023-06-10T11:15:51;5.50;;;3.40;;
48534;SDS011;34323;52.022;5.686;2023-06-10T11:20:56;5.60;;;3.40;;
48534;SDS011;34323;52.022;5.686;2023-06-10T11:31:25;5.38;;;3.67;;
48534;SDS011;34323;52.022;5.686;2023-06-10T11:36:21;5.43;;;3.40;;
48534;SDS011;34323;52.022;5.686;2023-06-10T11:38:48;4.65;;;3.33;;
48534;SDS011;34323;52.022;5.686;2023-06-10T11:41:15;5.95;;;3.47;;
48534;SDS011;34323;52.022;5.686;2023-06-10T11:43:42;4.35;;;2.88;;
48534;SDS011;34323;52.022;5.686;2023-06-10T11:46:09;6.85;;;3.63;;
48534;SDS011;34323;52.022;5.686;2023-06-10T11:48:35;9.40;;;3.55;;
48534;SDS011;34323;52.022;5.686;2023-06-10T11:51:05;6.20;;;3.95;;
48534;SDS011;34323;52.022;5.686;2023-06-10T11:53:31;5.75;;;3.92;;
48534;SDS011;34323;52.022;5.686;2023-06-10T11:55:57;6.15;;;3.17;;
48534;SDS011;34323;52.022;5.686;2023-06-10T11:58:22;5.28;;;3.28;;
48534;SDS011;34323;52.022;5.686;2023-06-10T12:00:52;8.23;;;3.38;;
48534;SDS011;34323;52.022;5.686;2023-06-10T12:03:19;5.28;;;3.58;;
48534;SDS011;34323;52.022;5.686;2023-06-10T12:08:24;9.55;;;4.15;;
48534;SDS011;34323;52.022;5.686;2023-06-10T12:10:50;7.40;;;4.20;;
48534;SDS011;34323;52.022;5.686;2023-06-10T12:13:16;4.43;;;3.63;;
48534;SDS011;34323;52.022;5.686;2023-06-10T12:15:43;15.60;;;4.10;;
48534;SDS011;34323;52.022;5.686;2023-06-10T12:18:15;7.47;;;3.45;;
48534;SDS011;34323;52.022;5.686;2023-06-10T12:20:44;6.57;;;4.00;;
48534;SDS011;34323;52.022;5.686;2023-06-10T12:23:11;6.50;;;3.90;;
48534;SDS011;34323;52.022;5.686;2023-06-10T12:25:37;7.38;;;4.30;;
48534;SDS011;34323;52.022;5.686;2023-06-10T12:28:03;14.48;;;4.03;;
48534;SDS011;34323;52.022;5.686;2023-06-10T12:30:30;5.95;;;3.80;;
48534;SDS011;34323;52.022;5.686;2023-06-10T12:32:56;6.47;;;4.20;;
48534;SDS011;34323;52.022;5.686;2023-06-10T12:35:23;5.70;;;3.20;;
48534;SDS011;34323;52.022;5.686;2023-06-10T12:40:34;8.95;;;4.28;;
48534;SDS011;34323;52.022;5.686;2023-06-10T12:43:03;8.73;;;3.67;;
48534;SDS011;34323;52.022;5.686;2023-06-10T12:45:36;5.20;;;3.22;;
48534;SDS011;34323;52.022;5.686;2023-06-10T12:48:08;10.23;;;3.78;;
48534;SDS011;34323;52.022;5.686;2023-06-10T12:50:37;7.72;;;3.90;;
48534;SDS011;34323;52.022;5.686;2023-06-10T12:53:06;14.40;;;4.73;;
48534;SDS011;34323;52.022;5.686;2023-06-10T12:55:32;7.50;;;3.78;;
48534;SDS011;34323;52.022;5.686;2023-06-10T12:57:58;5.50;;;3.67;;
48534;SDS011;34323;52.022;5.686;2023-06-10T13:00:26;4.90;;;3.33;;
48534;SDS011;34323;52.022;5.686;2023-06-10T13:02:54;7.95;;;3.53;;
48534;SDS011;34323;52.022;5.686;2023-06-10T13:05:21;5.30;;;3.53;;
48534;SDS011;34323;52.022;5.686;2023-06-10T13:07:47;10.63;;;3.88;;
48534;SDS011;34323;52.022;5.686;2023-06-10T13:10:13;5.78;;;3.72;;
48534;SDS011;34323;52.022;5.686;2023-06-10T13:12:41;5.55;;;3.40;;
48534;SDS011;34323;52.022;5.686;2023-06-10T13:15:07;7.45;;;3.40;;
48534;SDS011;34323;52.022;5.686;2023-06-10T13:17:33;5.20;;;3.45;;
48534;SDS011;34323;52.022;5.686;2023-06-10T13:20:02;8.13;;;3.72;;
48534;SDS011;34323;52.022;5.686;2023-06-10T13:22:30;6.32;;;3.50;;
48534;SDS011;34323;52.022;5.686;2023-06-10T13:24:58;5.68;;;3.83;;
48534;SDS011;34323;52.022;5.686;2023-06-10T13:27:28;6.05;;;3.60;;
48534;SDS011;34323;52.022;5.686;2023-06-10T13:29:53;7.90;;;3.78;;
48534;SDS011;34323;52.022;5.686;2023-06-10T13:32:19;9.48;;;3.70;;
48534;SDS011;34323;52.022;5.686;2023-06-10T13:34:44;4.93;;;3.65;;
48534;SDS011;34323;52.022;5.686;2023-06-10T13:37:10;6.35;;;3.85;;
48534;SDS011;34323;52.022;5.686;2023-06-10T13:39:37;7.65;;;4.28;;
48534;SDS011;34323;52.022;5.686;2023-06-10T13:42:03;5.50;;;3.60;;
48534;SDS011;34323;52.022;5.686;2023-06-10T13:44:29;5.07;;;3.78;;
48534;SDS011;34323;52.022;5.686;2023-06-10T13:46:58;6.38;;;3.47;;
48534;SDS011;34323;52.022;5.686;2023-06-10T13:49:24;6.28;;;3.67;;
48534;SDS011;34323;52.022;5.686;2023-06-10T13:51:50;4.80;;;3.78;;
48534;SDS011;34323;52.022;5.686;2023-06-10T13:54:15;6.40;;;3.83;;
48534;SDS011;34323;52.022;5.686;2023-06-10T13:56:41;8.02;;;3.78;;
48534;SDS011;34323;52.022;5.686;2023-06-10T13:59:07;6.82;;;3.90;;
48534;SDS011;34323;52.022;5.686;2023-06-10T14:01:33;8.45;;;3.88;;
48534;SDS011;34323;52.022;5.686;2023-06-10T14:03:59;5.72;;;4.18;;
48534;SDS011;34323;52.022;5.686;2023-06-10T14:06:25;6.20;;;3.88;;
48534;SDS011;34323;52.022;5.686;2023-06-10T14:08:51;7.03;;;4.18;;
48534;SDS011;34323;52.022;5.686;2023-06-10T14:11:19;7.43;;;3.80;;
48534;SDS011;34323;52.022;5.686;2023-06-10T14:13:45;5.25;;;3.80;;
48534;SDS011;34323;52.022;5.686;2023-06-10T14:16:11;5.10;;;4.00;;
48534;SDS011;34323;52.022;5.686;2023-06-10T14:18:37;5.80;;;3.15;;
48534;SDS011;34323;52.022;5.686;2023-06-10T14:21:02;6.28;;;3.88;;
48534;SDS011;34323;52.022;5.686;2023-06-10T14:23:28;6.63;;;3.47;;
48534;SDS011;34323;52.022;5.686;2023-06-10T14:25:53;8.25;;;3.60;;
48534;SDS011;34323;52.022;5.686;2023-06-10T14:28:19;4.53;;;3.85;;
48534;SDS011;34323;52.022;5.686;2023-06-10T14:30:44;3.33;;;3.00;;
48534;SDS011;34323;52.022;5.686;2023-06-10T14:33:10;5.60;;;3.40;;
48534;SDS011;34323;52.022;5.686;2023-06-10T14:35:36;6.32;;;3.53;;
48534;SDS011;34323;52.022;5.686;2023-06-10T14:38:01;8.02;;;3.70;;
48534;SDS011;34323;52.022;5.686;2023-06-10T14:40:27;5.78;;;3.40;;
48534;SDS011;34323;52.022;5.686;2023-06-10T14:42:54;3.85;;;3.20;;
48534;SDS011;34323;52.022;5.686;2023-06-10T14:45:20;12.68;;;3.85;;
48534;SDS011;34323;52.022;5.686;2023-06-10T14:47:45;4.85;;;3.50;;
48534;SDS011;34323;52.022;5.686;2023-06-10T14:50:12;4.82;;;3.65;;
48534;SDS011;34323;52.022;5.686;2023-06-10T14:52:37;4.47;;;3.47;;
48534;SDS011;34323;52.022;5.686;2023-06-10T14:55:03;5.90;;;3.38;;
48534;SDS011;34323;52.022;5.686;2023-06-10T14:57:29;7.22;;;3.55;;
48534;SDS011;34323;52.022;5.686;2023-06-10T14:59:55;6.55;;;3.60;;
48534;SDS011;34323;52.022;5.686;2023-06-10T15:02:21;16.25;;;4.05;;
48534;SDS011;34323;52.022;5.686;2023-06-10T15:04:47;8.65;;;3.70;;
48534;SDS011;34323;52.022;5.686;2023-06-10T15:07:12;18.10;;;3.97;;
48534;SDS011;34323;52.022;5.686;2023-06-10T15:09:40;4.82;;;3.92;;
48534;SDS011;34323;52.022;5.686;2023-06-10T15:12:06;6.47;;;3.75;;